Time;durP1;ratioP1;P1;durP2;ratioP2;P2;SDS_P1;SDS_P2;PMS_P1;PMS_P2;Temp;Humidity;BMP_temperature;BMP_pressure;BME280_temperature;BME280_humidity;BME280_pressure;Samples;Min_cycle;Max_cycle;Signal;HPM_P1;HPM_P2
2021/11/07 00:00:48;;;;;;;21.73;17.20;;;10.10;99.90;;;;;;5070140;28;20641;-82
2021/11/07 00:03:52;;;;;;;20.90;17.50;;;10.10;99.90;;;;;;5059536;28;20236;-85
2021/11/07 00:06:33;;;;;;;19.48;16.38;;;10.10;99.90;;;;;;5067842;28;20243;-84
2021/11/07 00:09:05;;;;;;;19.02;16.73;;;10.10;99.90;;;;;;5066703;28;20596;-84
2021/11/07 00:11:36;;;;;;;21.80;17.52;;;10.10;99.90;;;;;;5063761;28;20220;-84
2021/11/07 00:14:05;;;;;;;22.13;17.35;;;10.10;99.90;;;;;;5068072;28;20219;-84
2021/11/07 00:16:34;;;;;;;21.83;17.67;;;10.00;99.90;;;;;;5070357;28;20223;-83
2021/11/07 00:19:09;;;;;;;18.02;16.13;;;10.00;99.90;;;;;;5084924;28;20207;-83
2021/11/07 00:21:44;;;;;;;18.05;14.93;;;10.10;99.90;;;;;;5070990;28;20326;-83
2021/11/07 00:24:14;;;;;;;19.90;16.30;;;10.10;99.90;;;;;;5069504;28;20238;-84
2021/11/07 00:26:55;;;;;;;17.23;15.50;;;10.00;99.90;;;;;;5066496;28;20200;-84
2021/11/07 00:29:25;;;;;;;19.48;15.93;;;10.00;99.90;;;;;;5063540;28;20233;-84
2021/11/07 00:31:57;;;;;;;18.20;16.15;;;10.10;99.90;;;;;;5078139;28;20281;-83
2021/11/07 00:37:26;;;;;;;20.48;15.10;;;10.10;99.90;;;;;;5073363;28;20671;-83
2021/11/07 00:40:06;;;;;;;18.73;16.02;;;10.10;99.90;;;;;;5080022;28;20195;-84
2021/11/07 00:42:42;;;;;;;20.10;15.82;;;10.10;99.90;;;;;;5069231;28;20334;-83
2021/11/07 00:45:21;;;;;;;17.25;14.55;;;10.10;99.90;;;;;;5064882;28;20739;-84
2021/11/07 00:47:58;;;;;;;19.05;15.50;;;10.10;99.90;;;;;;5079932;28;20208;-83
2021/11/07 00:50:29;;;;;;;21.60;15.55;;;10.00;99.90;;;;;;5070017;28;20199;-84
2021/11/07 00:53:10;;;;;;;19.38;15.55;;;10.10;99.90;;;;;;5075211;28;20257;-84
2021/11/07 00:55:41;;;;;;;15.35;13.85;;;10.10;99.90;;;;;;5072187;28;20263;-83
2021/11/07 00:58:12;;;;;;;13.25;11.98;;;10.00;99.90;;;;;;5070411;28;20196;-83
2021/11/07 01:00:48;;;;;;;16.27;13.15;;;10.10;99.90;;;;;;5071941;28;20309;-84
2021/11/07 01:03:18;;;;;;;14.50;13.10;;;10.10;99.90;;;;;;5068689;28;20226;-85
2021/11/07 01:05:45;;;;;;;18.80;13.60;;;10.10;99.90;;;;;;5074884;28;20259;-83
2021/11/07 01:08:12;;;;;;;14.82;12.13;;;10.10;99.90;;;;;;5073633;28;20211;-82
2021/11/07 01:10:39;;;;;;;12.95;11.65;;;10.10;99.90;;;;;;5065479;28;20215;-84
2021/11/07 01:13:06;;;;;;;13.95;11.30;;;10.10;99.90;;;;;;5078091;28;20224;-84
2021/11/07 01:15:36;;;;;;;15.32;13.73;;;10.10;99.90;;;;;;5070201;28;20206;-84
2021/11/07 01:18:03;;;;;;;13.73;12.32;;;10.10;99.90;;;;;;5080491;28;20246;-84
2021/11/07 01:20:32;;;;;;;12.75;10.88;;;10.20;99.90;;;;;;5070238;28;20228;-84
2021/11/07 01:23:03;;;;;;;17.02;12.20;;;10.20;99.90;;;;;;5061985;28;20231;-84
2021/11/07 01:25:34;;;;;;;13.68;12.27;;;10.20;99.90;;;;;;5065846;28;20204;-84
2021/11/07 01:28:03;;;;;;;11.25;10.00;;;10.20;99.90;;;;;;5064058;28;20199;-84
2021/11/07 01:30:32;;;;;;;17.40;10.93;;;10.20;99.90;;;;;;5071093;28;20206;-84
2021/11/07 01:33:04;;;;;;;11.52;10.43;;;10.20;99.90;;;;;;5077258;28;20231;-83
2021/11/07 01:35:37;;;;;;;12.93;11.65;;;10.30;99.90;;;;;;5072091;28;20626;-83
2021/11/07 01:38:13;;;;;;;12.23;11.13;;;10.30;99.90;;;;;;5081557;28;20202;-85
2021/11/07 01:40:45;;;;;;;9.63;8.73;;;10.30;99.90;;;;;;5064359;28;20223;-83
2021/11/07 01:43:13;;;;;;;12.23;9.75;;;10.30;99.90;;;;;;5083648;28;20233;-84
2021/11/07 01:45:44;;;;;;;10.48;9.50;;;10.30;99.90;;;;;;5071678;28;20225;-84
2021/11/07 01:48:15;;;;;;;10.00;9.07;;;10.30;99.90;;;;;;5068740;28;20217;-84
2021/11/07 01:50:52;;;;;;;11.85;10.65;;;10.30;99.90;;;;;;5073003;28;20213;-84
2021/11/07 01:53:26;;;;;;;11.20;8.90;;;10.30;99.90;;;;;;5057759;28;20675;-84
2021/11/07 01:55:56;;;;;;;10.88;9.80;;;10.30;99.90;;;;;;5065082;28;20207;-83
2021/11/07 01:58:24;;;;;;;10.93;9.77;;;10.30;99.90;;;;;;5080407;28;20221;-84
2021/11/07 02:00:53;;;;;;;16.90;15.10;;;10.30;99.90;;;;;;5072587;28;20239;-83
2021/11/07 02:03:22;;;;;;;17.83;14.65;;;10.20;99.90;;;;;;5069378;28;20208;-84
2021/11/07 02:05:49;;;;;;;14.43;12.95;;;10.20;99.90;;;;;;5080889;28;20213;-84
2021/11/07 02:08:19;;;;;;;13.55;12.25;;;10.30;99.90;;;;;;5072323;28;20207;-83
2021/11/07 02:10:46;;;;;;;14.02;12.70;;;10.30;99.90;;;;;;5082883;28;20199;-82
2021/11/07 02:13:13;;;;;;;15.60;11.82;;;10.40;99.90;;;;;;5070008;28;20218;-82
2021/11/07 02:15:40;;;;;;;16.10;14.07;;;10.50;99.90;;;;;;5081360;28;20205;-83
2021/11/07 02:18:08;;;;;;;13.07;11.82;;;10.50;99.90;;;;;;5087010;28;20207;-84
2021/11/07 02:20:38;;;;;;;16.00;14.32;;;10.50;99.90;;;;;;5074055;28;20287;-83
2021/11/07 02:23:07;;;;;;;15.38;13.88;;;10.50;99.90;;;;;;5069612;28;20226;-83
2021/11/07 02:25:35;;;;;;;16.98;15.23;;;10.60;99.90;;;;;;5063448;28;20209;-83
2021/11/07 02:28:03;;;;;;;18.48;13.57;;;10.60;99.90;;;;;;5066541;28;20215;-82
2021/11/07 02:30:33;;;;;;;12.57;11.27;;;10.60;99.90;;;;;;5063630;28;20184;-83
2021/11/07 02:33:00;;;;;;;13.48;12.05;;;10.50;99.90;;;;;;5063057;28;20232;-83
2021/11/07 02:35:28;;;;;;;16.85;13.00;;;10.50;99.90;;;;;;5068629;28;20203;-83
2021/11/07 02:37:57;;;;;;;12.75;10.63;;;10.40;99.90;;;;;;5067854;28;20217;-83
2021/11/07 02:40:26;;;;;;;10.00;9.00;;;10.40;99.90;;;;;;5066743;28;20195;-83
2021/11/07 02:42:53;;;;;;;7.60;5.90;;;10.40;99.90;;;;;;5069905;28;20203;-83
2021/11/07 02:45:23;;;;;;;10.55;8.18;;;10.40;99.90;;;;;;5068972;28;20203;-85
2021/11/07 02:47:51;;;;;;;6.20;5.60;;;10.40;99.90;;;;;;5070783;28;20200;-83
2021/11/07 02:50:20;;;;;;;4.50;4.10;;;10.30;99.90;;;;;;5069597;28;20196;-82
2021/11/07 02:52:48;;;;;;;4.15;3.75;;;10.30;99.90;;;;;;5078185;28;20279;-83
2021/11/07 02:55:17;;;;;;;4.13;3.75;;;10.40;99.90;;;;;;5066671;28;20190;-82
2021/11/07 02:57:47;;;;;;;4.40;3.45;;;10.20;99.90;;;;;;5069143;28;20199;-82
2021/11/07 03:00:16;;;;;;;6.60;3.80;;;10.40;99.90;;;;;;5069250;28;20203;-83
2021/11/07 03:02:44;;;;;;;5.18;4.70;;;10.40;99.90;;;;;;5071073;28;20250;-82
2021/11/07 03:05:13;;;;;;;5.45;4.93;;;10.30;99.90;;;;;;5075988;28;20211;-82
2021/11/07 03:07:41;;;;;;;6.05;5.45;;;10.30;99.90;;;;;;5076079;28;20217;-82
2021/11/07 03:10:09;;;;;;;7.20;6.15;;;10.30;99.90;;;;;;5070975;28;20211;-82
2021/11/07 03:12:38;;;;;;;8.65;7.30;;;10.30;99.90;;;;;;5075516;28;20227;-83
2021/11/07 03:15:08;;;;;;;7.50;6.80;;;10.30;99.90;;;;;;5078808;28;20184;-82
2021/11/07 03:17:35;;;;;;;8.88;8.00;;;10.40;99.90;;;;;;5089029;28;20190;-82
2021/11/07 03:20:04;;;;;;;9.43;7.82;;;10.30;99.90;;;;;;5084600;28;20199;-84
2021/11/07 03:22:31;;;;;;;10.98;9.80;;;10.40;99.90;;;;;;5076323;28;20224;-84
2021/11/07 03:24:59;;;;;;;12.05;10.88;;;10.40;99.90;;;;;;5089816;28;20223;-84
2021/11/07 03:27:29;;;;;;;15.07;11.38;;;10.40;99.90;;;;;;5083842;28;20219;-83
2021/11/07 03:30:00;;;;;;;11.50;10.40;;;10.40;99.90;;;;;;5077724;28;20194;-83
2021/11/07 03:32:38;;;;;;;10.43;8.95;;;10.40;99.90;;;;;;5084945;28;20208;-83
2021/11/07 03:35:12;;;;;;;13.77;11.10;;;10.50;99.90;;;;;;5081988;28;20189;-82
2021/11/07 03:37:45;;;;;;;12.13;10.93;;;10.50;99.90;;;;;;5084752;28;20202;-82
2021/11/07 03:40:12;;;;;;;13.77;10.63;;;10.50;99.90;;;;;;5081320;28;20192;-83
2021/11/07 03:42:40;;;;;;;13.30;11.88;;;10.50;99.90;;;;;;5084837;28;20236;-82
2021/11/07 03:45:10;;;;;;;13.20;11.90;;;10.50;99.90;;;;;;5083621;28;20191;-82
2021/11/07 03:47:37;;;;;;;14.02;11.60;;;10.50;99.90;;;;;;5097032;28;20173;-81
2021/11/07 03:50:06;;;;;;;13.63;12.25;;;10.50;99.90;;;;;;5097421;28;20188;-81
2021/11/07 03:52:34;;;;;;;12.13;10.82;;;10.50;99.90;;;;;;5097078;28;20226;-81
2021/11/07 03:58:24;;;;;;;13.00;11.50;;;10.50;99.90;;;;;;5077386;28;20198;-83
2021/11/07 04:00:52;;;;;;;14.70;12.95;;;10.50;99.90;;;;;;5076585;28;20202;-83
2021/11/07 04:03:19;;;;;;;12.88;11.48;;;10.60;99.90;;;;;;5080958;28;20178;-83
2021/11/07 04:05:47;;;;;;;17.40;12.30;;;10.60;99.90;;;;;;5095876;28;20211;-82
2021/11/07 04:08:14;;;;;;;14.50;11.77;;;10.60;99.90;;;;;;5087883;28;20232;-82
2021/11/07 04:10:41;;;;;;;13.10;11.80;;;10.70;99.90;;;;;;5072245;28;20198;-82
2021/11/07 04:13:08;;;;;;;16.10;11.73;;;10.70;99.90;;;;;;5064816;28;20319;-83
2021/11/07 04:15:36;;;;;;;15.38;11.27;;;10.70;99.90;;;;;;5075541;28;20815;-83
2021/11/07 04:18:06;;;;;;;17.48;13.00;;;10.70;99.90;;;;;;5062962;28;20213;-83
2021/11/07 04:20:33;;;;;;;18.17;12.10;;;10.70;99.90;;;;;;5067842;28;20201;-83
2021/11/07 04:23:01;;;;;;;12.50;11.07;;;10.70;99.90;;;;;;5062514;28;20255;-83
2021/11/07 04:25:28;;;;;;;18.55;11.25;;;10.70;99.90;;;;;;5060310;28;20203;-84
2021/11/07 04:27:55;;;;;;;14.55;10.90;;;10.60;99.90;;;;;;5055931;28;20198;-83
2021/11/07 04:30:23;;;;;;;13.68;11.20;;;10.60;99.90;;;;;;5052386;28;20560;-83
2021/11/07 04:32:50;;;;;;;12.52;10.75;;;10.60;99.90;;;;;;5067504;28;20228;-83
2021/11/07 04:35:18;;;;;;;18.92;13.95;;;10.60;99.90;;;;;;5065104;28;20304;-83
2021/11/07 04:37:45;;;;;;;16.13;11.98;;;10.60;99.90;;;;;;5068840;28;20216;-83
2021/11/07 04:40:15;;;;;;;12.73;10.48;;;10.70;99.90;;;;;;5077229;28;20442;-83
2021/11/07 04:42:43;;;;;;;15.45;10.98;;;10.70;99.90;;;;;;5076610;28;20311;-83
2021/11/07 04:45:10;;;;;;;19.92;11.85;;;10.80;99.90;;;;;;5067750;28;20257;-83
2021/11/07 04:47:38;;;;;;;15.50;11.43;;;10.80;99.90;;;;;;5070598;28;20200;-83
2021/11/07 04:50:07;;;;;;;18.10;11.15;;;10.80;99.90;;;;;;5068140;28;20204;-83
2021/11/07 04:52:35;;;;;;;11.45;10.27;;;10.90;99.90;;;;;;5086006;28;20226;-83
2021/11/07 04:55:03;;;;;;;18.02;11.88;;;10.80;99.90;;;;;;5079176;28;21025;-82
2021/11/07 04:57:30;;;;;;;15.68;10.18;;;10.80;99.90;;;;;;5072089;28;20210;-83
2021/11/07 04:59:57;;;;;;;14.45;8.43;;;10.80;99.90;;;;;;5080900;28;20296;-83
2021/11/07 05:02:24;;;;;;;13.00;6.80;;;10.70;99.90;;;;;;5076691;28;20220;-83
2021/11/07 05:04:54;;;;;;;11.35;6.95;;;10.70;99.90;;;;;;5083718;28;20192;-83
2021/11/07 05:07:22;;;;;;;15.57;6.32;;;10.70;99.90;;;;;;5069367;28;20696;-82
2021/11/07 05:09:50;;;;;;;21.27;10.20;;;10.70;99.90;;;;;;5080449;28;20199;-83
2021/11/07 05:12:17;;;;;;;11.60;9.90;;;10.70;99.90;;;;;;5078709;28;20216;-85
2021/11/07 05:14:44;;;;;;;14.43;11.25;;;10.70;99.90;;;;;;5077293;28;20234;-82
2021/11/07 05:17:12;;;;;;;12.32;7.97;;;10.80;99.90;;;;;;5085571;28;20212;-82
2021/11/07 05:19:39;;;;;;;18.10;10.30;;;10.70;99.90;;;;;;5077490;28;20211;-82
2021/11/07 05:22:07;;;;;;;16.77;12.50;;;10.70;99.90;;;;;;5086141;28;20218;-82
2021/11/07 05:24:34;;;;;;;12.98;10.65;;;10.70;99.90;;;;;;5084907;28;20315;-83
2021/11/07 05:27:03;;;;;;;15.85;11.23;;;10.70;99.90;;;;;;5081778;28;20203;-83
2021/11/07 05:29:30;;;;;;;18.52;10.45;;;10.70;99.90;;;;;;5074330;28;20242;-84
2021/11/07 05:31:59;;;;;;;7.03;6.15;;;10.70;99.90;;;;;;5076572;28;20216;-84
2021/11/07 05:34:27;;;;;;;17.38;6.45;;;10.60;99.90;;;;;;5086095;28;20190;-83
2021/11/07 05:36:54;;;;;;;13.88;6.25;;;10.60;99.90;;;;;;5073466;28;20231;-83
2021/11/07 05:39:22;;;;;;;17.88;7.03;;;10.50;99.90;;;;;;5090208;28;20260;-84
2021/11/07 05:41:49;;;;;;;14.60;4.00;;;10.50;99.90;;;;;;5074701;28;20260;-84
2021/11/07 05:44:18;;;;;;;19.02;5.40;;;10.50;99.90;;;;;;5073876;28;20239;-84
2021/11/07 05:46:45;;;;;;;16.23;4.90;;;10.50;99.90;;;;;;5076405;28;20201;-84
2021/11/07 05:49:13;;;;;;;10.13;3.50;;;10.40;99.90;;;;;;5073639;28;20209;-84
2021/11/07 05:51:40;;;;;;;9.85;3.15;;;10.40;99.90;;;;;;5072601;28;20216;-83
2021/11/07 05:54:08;;;;;;;11.65;4.30;;;10.20;99.90;;;;;;5081448;28;20268;-83
2021/11/07 05:56:35;;;;;;;15.52;4.55;;;10.30;99.90;;;;;;5076854;28;20209;-84
2021/11/07 05:59:03;;;;;;;12.75;4.05;;;10.20;99.90;;;;;;5077827;28;20213;-84
2021/11/07 06:01:35;;;;;;;14.32;4.28;;;10.30;99.90;;;;;;5079258;28;20241;-84
2021/11/07 06:04:02;;;;;;;22.83;5.25;;;10.20;99.90;;;;;;5081480;28;20204;-83
2021/11/07 06:06:30;;;;;;;18.58;4.07;;;10.20;99.90;;;;;;5075857;28;20278;-84
2021/11/07 06:08:57;;;;;;;22.08;5.68;;;10.30;99.90;;;;;;5080341;28;20205;-83
2021/11/07 06:11:24;;;;;;;16.42;6.20;;;10.40;99.90;;;;;;5062363;28;20225;-84
2021/11/07 06:13:52;;;;;;;13.25;4.47;;;10.50;99.90;;;;;;5079400;28;20215;-84
2021/11/07 06:19:26;;;;;;;10.88;4.13;;;10.50;99.90;;;;;;5088412;28;20277;-83
2021/11/07 06:22:38;;;;;;;12.23;3.63;;;10.50;99.90;;;;;;5075635;28;20237;-83
2021/11/07 06:25:06;;;;;;;13.30;3.40;;;10.50;99.90;;;;;;5077723;28;20214;-83
2021/11/07 06:27:35;;;;;;;14.93;4.30;;;10.40;99.90;;;;;;5072085;28;20203;-83
2021/11/07 06:30:19;;;;;;;8.52;4.22;;;10.30;99.90;;;;;;5069628;28;20215;-84
2021/11/07 06:32:58;;;;;;;10.60;3.53;;;10.30;99.90;;;;;;5074466;28;20218;-84
2021/11/07 06:35:27;;;;;;;14.60;3.78;;;10.30;99.90;;;;;;5069046;28;20211;-84
2021/11/07 06:37:55;;;;;;;17.52;3.35;;;10.20;99.90;;;;;;5062638;28;20207;-84
2021/11/07 06:40:22;;;;;;;10.30;3.38;;;10.10;99.90;;;;;;5074041;28;20204;-83
2021/11/07 06:42:50;;;;;;;10.48;4.22;;;10.10;99.90;;;;;;5073681;28;20223;-84
2021/11/07 06:45:17;;;;;;;11.80;3.42;;;10.10;99.90;;;;;;5067741;28;20203;-84
2021/11/07 06:47:44;;;;;;;14.68;4.25;;;10.10;99.90;;;;;;5074460;28;20202;-83
2021/11/07 06:50:13;;;;;;;11.30;4.25;;;10.00;99.90;;;;;;5073537;28;20198;-83
2021/11/07 06:52:43;;;;;;;11.10;4.03;;;10.00;99.90;;;;;;5063926;28;20253;-83
2021/11/07 07:01:21;;;;;;;20.20;4.10;;;10.00;99.90;;;;;;5062744;28;20215;-83
2021/11/07 07:03:57;;;;;;;12.60;3.70;;;10.10;99.90;;;;;;5069596;28;20258;-83
2021/11/07 07:06:24;;;;;;;20.83;4.95;;;10.10;99.90;;;;;;5063930;28;20335;-82
2021/11/07 07:08:56;;;;;;;12.38;4.00;;;10.20;99.90;;;;;;5077110;28;20199;-82
2021/11/07 07:11:28;;;;;;;21.20;4.95;;;10.20;99.90;;;;;;5068770;28;20232;-83
2021/11/07 07:13:59;;;;;;;9.60;3.55;;;10.20;99.90;;;;;;5070296;28;20233;-83
2021/11/07 07:16:34;;;;;;;13.10;3.30;;;10.20;99.90;;;;;;5062893;28;20204;-83
2021/11/07 07:19:10;;;;;;;12.38;3.90;;;10.30;99.90;;;;;;5066946;28;20238;-82
2021/11/07 07:21:46;;;;;;;6.05;3.38;;;10.20;99.90;;;;;;5066886;28;20240;-83
2021/11/07 07:30:24;;;;;;;13.05;4.72;;;10.30;99.90;;;;;;5065673;28;20261;-82
2021/11/07 07:32:58;;;;;;;14.32;4.03;;;10.50;99.90;;;;;;5068816;28;20251;-81
2021/11/07 07:35:27;;;;;;;15.52;3.72;;;10.50;99.90;;;;;;5069847;28;20271;-83
2021/11/07 07:37:55;;;;;;;15.43;3.47;;;10.50;99.90;;;;;;5064561;28;20264;-83
2021/11/07 07:40:26;;;;;;;24.00;4.13;;;10.60;99.90;;;;;;5068513;28;20194;-83
2021/11/07 07:42:53;;;;;;;15.95;4.53;;;10.60;99.90;;;;;;5075427;28;20223;-81
2021/11/07 07:45:21;;;;;;;17.58;4.97;;;10.70;99.90;;;;;;5068689;28;20239;-82
2021/11/07 07:47:49;;;;;;;17.27;4.30;;;10.60;99.90;;;;;;5076347;28;20205;-83
2021/11/07 07:50:18;;;;;;;17.67;4.32;;;10.60;99.90;;;;;;5070349;28;20200;-84
2021/11/07 07:52:46;;;;;;;15.30;4.40;;;10.70;99.90;;;;;;5074363;28;20222;-85
2021/11/07 07:55:16;;;;;;;16.20;5.50;;;10.70;99.90;;;;;;5070813;28;20206;-84
2021/11/07 07:57:46;;;;;;;15.18;3.42;;;10.70;99.90;;;;;;5072364;28;20199;-86
2021/11/07 08:00:16;;;;;;;8.95;3.58;;;10.60;99.90;;;;;;5076490;28;20636;-84
2021/11/07 08:02:43;;;;;;;8.52;3.30;;;10.50;99.90;;;;;;5076835;28;20246;-82
2021/11/07 08:05:12;;;;;;;9.02;3.08;;;10.60;99.90;;;;;;5095311;28;20193;-81
2021/11/07 08:07:42;;;;;;;10.05;2.47;;;10.60;99.90;;;;;;5076627;28;20199;-83
2021/11/07 08:10:10;;;;;;;10.40;2.90;;;10.50;99.90;;;;;;5076217;28;20208;-82
2021/11/07 08:12:39;;;;;;;9.07;3.28;;;10.50;99.90;;;;;;5081516;28;20261;-81
2021/11/07 08:15:09;;;;;;;10.30;2.83;;;10.60;99.90;;;;;;5087781;28;20216;-86
2021/11/07 08:17:36;;;;;;;5.68;2.40;;;10.60;99.90;;;;;;5089267;28;20206;-82
2021/11/07 08:20:05;;;;;;;12.45;2.88;;;10.70;99.90;;;;;;5083321;28;20267;-82
2021/11/07 08:22:33;;;;;;;8.02;2.08;;;10.80;99.90;;;;;;5080788;28;20266;-85
2021/11/07 08:25:09;;;;;;;11.20;3.17;;;10.90;99.90;;;;;;5067888;28;20280;-81
2021/11/07 08:27:36;;;;;;;8.30;2.60;;;10.70;99.90;;;;;;5071159;28;20222;-85
2021/11/07 08:30:04;;;;;;;14.13;3.47;;;10.50;99.90;;;;;;5064518;28;20222;-84
2021/11/07 08:32:33;;;;;;;10.82;2.95;;;10.40;99.90;;;;;;5067141;28;20219;-85
2021/11/07 08:35:01;;;;;;;15.38;3.30;;;10.40;99.90;;;;;;5067260;28;21435;-84
2021/11/07 08:37:33;;;;;;;13.05;3.38;;;10.40;99.90;;;;;;5063371;28;20200;-84
2021/11/07 08:40:05;;;;;;;15.52;3.85;;;11.00;99.90;;;;;;5078497;28;20202;-85
2021/11/07 08:42:34;;;;;;;11.52;3.22;;;11.90;99.90;;;;;;5065124;28;20234;-86
2021/11/07 09:01:39;;;;;;;12.53;2.33;;;16.70;99.90;;;;;;5061654;28;20965;-83
2021/11/07 09:04:25;;;;;;;9.90;4.00;;;16.90;99.90;;;;;;5072172;28;20454;-87
2021/11/07 09:07:17;;;;;;;11.73;3.93;;;16.50;99.90;;;;;;5069077;28;20465;-84
2021/11/07 09:09:45;;;;;;;17.48;5.35;;;15.60;99.90;;;;;;5060086;28;20478;-83
2021/11/07 09:12:13;;;;;;;23.50;4.95;;;14.50;99.90;;;;;;5065248;28;20247;-85
2021/11/07 09:14:42;;;;;;;12.35;3.17;;;13.70;99.90;;;;;;5067695;28;20208;-85
2021/11/07 09:17:15;;;;;;;9.57;3.15;;;13.70;99.90;;;;;;5068736;28;20223;-85
2021/11/07 09:19:47;;;;;;;15.43;4.28;;;13.20;99.90;;;;;;5055811;28;20210;-85
2021/11/07 09:22:18;;;;;;;8.10;2.45;;;13.90;99.90;;;;;;5068042;28;20255;-84
2021/11/07 09:24:48;;;;;;;10.77;3.42;;;14.60;99.90;;;;;;5063934;28;20272;-83
2021/11/07 09:27:22;;;;;;;9.85;3.25;;;15.10;99.90;;;;;;5062827;28;20220;-83
2021/11/07 09:29:57;;;;;;;13.73;3.30;;;15.70;99.90;;;;;;5066919;28;20194;-82
2021/11/07 09:32:35;;;;;;;11.33;3.07;;;15.80;99.90;;;;;;5066151;28;20284;-83
2021/11/07 09:35:26;;;;;;;13.20;3.37;;;16.00;99.90;;;;;;5068261;28;20457;-83
2021/11/07 09:37:55;;;;;;;12.60;4.47;;;17.00;99.90;;;;;;5063044;28;20442;-84
2021/11/07 09:40:25;;;;;;;13.10;3.40;;;17.50;99.90;;;;;;5064037;28;20438;-84
2021/11/07 09:45:47;;;;;;;17.02;4.38;;;16.60;99.90;;;;;;5070113;28;20469;-84
2021/11/07 09:48:18;;;;;;;11.80;4.10;;;15.10;99.90;;;;;;5066936;28;20257;-84
2021/11/07 09:50:52;;;;;;;11.40;4.13;;;13.90;99.90;;;;;;5062270;28;20210;-83
2021/11/07 09:53:20;;;;;;;20.50;5.50;;;13.20;99.90;;;;;;5063215;28;21423;-84
2021/11/07 09:55:47;;;;;;;11.05;3.10;;;12.80;99.90;;;;;;5065428;28;20223;-82
2021/11/07 09:58:15;;;;;;;12.63;4.35;;;12.60;99.90;;;;;;5076499;28;20278;-84
2021/11/07 10:01:03;;;;;;;12.38;3.65;;;12.30;99.90;;;;;;5066834;28;20207;-83
2021/11/07 10:03:33;;;;;;;14.70;4.22;;;12.30;99.90;;;;;;5066209;28;20199;-83
2021/11/07 10:06:23;;;;;;;17.60;4.32;;;12.50;99.90;;;;;;5070415;28;20230;-84
2021/11/07 10:09:09;;;;;;;12.52;3.95;;;13.10;99.90;;;;;;5068300;28;20203;-85
2021/11/07 10:11:41;;;;;;;14.88;4.20;;;13.50;99.90;;;;;;5067007;28;20314;-84
2021/11/07 10:14:19;;;;;;;15.50;3.47;;;13.60;99.90;;;;;;5068594;28;20211;-86
2021/11/07 10:16:50;;;;;;;13.27;4.25;;;13.60;99.90;;;;;;5066923;28;20334;-85
2021/11/07 10:19:39;;;;;;;9.90;3.75;;;14.10;99.90;;;;;;5063998;28;20278;-85
2021/11/07 10:22:33;;;;;;;6.63;2.90;;;14.70;99.90;;;;;;5069636;28;20233;-84
2021/11/07 10:25:00;;;;;;;8.93;3.30;;;14.70;99.90;;;;;;5059171;28;20203;-85
2021/11/07 10:27:28;;;;;;;15.95;4.65;;;14.50;99.90;;;;;;5059966;28;20720;-84
2021/11/07 10:30:15;;;;;;;15.73;3.25;;;14.60;99.90;;;;;;5061816;28;20217;-83
2021/11/07 10:32:54;;;;;;;14.00;4.18;;;14.60;99.90;;;;;;5067791;28;20227;-85
2021/11/07 10:41:54;;;;;;;15.13;4.00;;;14.00;99.90;;;;;;5077524;28;20220;-82
2021/11/07 10:47:25;;;;;;;12.00;4.15;;;14.20;99.90;;;;;;5057659;28;20190;-82
2021/11/07 10:52:41;;;;;;;10.25;3.65;;;13.50;99.90;;;;;;5064502;28;20229;-82
2021/11/07 10:55:18;;;;;;;20.58;4.28;;;13.50;99.90;;;;;;5060429;28;20203;-82
2021/11/07 10:57:47;;;;;;;22.45;5.32;;;13.40;99.90;;;;;;5061290;28;20257;-81
2021/11/07 11:00:28;;;;;;;14.98;4.13;;;13.30;99.90;;;;;;5070548;28;20221;-82
2021/11/07 11:02:57;;;;;;;19.40;4.53;;;13.10;99.90;;;;;;5064052;28;20231;-80
2021/11/07 11:05:27;;;;;;;14.48;3.92;;;13.00;99.90;;;;;;5059964;28;20222;-81
2021/11/07 11:08:04;;;;;;;13.05;3.53;;;13.00;99.90;;;;;;5056174;28;20275;-81
2021/11/07 11:10:41;;;;;;;17.42;3.70;;;12.80;99.90;;;;;;5062151;28;20295;-82
2021/11/07 11:17:01;;;;;;;15.25;3.65;;;12.70;99.90;;;;;;5069149;28;20203;-81
2021/11/07 11:19:41;;;;;;;12.73;3.85;;;12.50;99.90;;;;;;5063816;28;20186;-81
2021/11/07 11:22:39;;;;;;;10.13;3.72;;;12.80;99.90;;;;;;5073585;28;20302;-81
2021/11/07 11:25:35;;;;;;;15.25;3.92;;;12.90;99.90;;;;;;5058063;28;20203;-82
2021/11/07 11:28:16;;;;;;;15.48;4.45;;;13.10;99.90;;;;;;5059251;28;20285;-81
2021/11/07 11:31:06;;;;;;;10.90;3.33;;;13.10;99.90;;;;;;5060217;28;20241;-80
2021/11/07 11:33:38;;;;;;;16.08;3.50;;;13.20;99.90;;;;;;5065809;28;20208;-80
2021/11/07 11:36:16;;;;;;;17.67;3.42;;;13.20;99.90;;;;;;5068415;28;20284;-80
2021/11/07 11:38:48;;;;;;;11.15;2.55;;;13.20;99.90;;;;;;5061809;28;20236;-79
2021/11/07 11:41:21;;;;;;;9.27;4.72;;;13.00;99.90;;;;;;5062110;28;20223;-79
2021/11/07 11:43:52;;;;;;;16.05;3.85;;;12.60;99.90;;;;;;5068536;28;20213;-79
2021/11/07 11:46:55;;;;;;;8.95;2.80;;;12.70;99.90;;;;;;5055647;28;20194;-81
2021/11/07 11:49:57;;;;;;;13.13;5.13;;;12.70;99.90;;;;;;5062806;28;20252;-82
2021/11/07 11:52:37;;;;;;;12.20;4.45;;;12.90;99.90;;;;;;5073543;28;20293;-82
2021/11/07 11:55:27;;;;;;;8.25;3.05;;;13.00;99.90;;;;;;5080935;28;20252;-83
2021/11/07 11:57:59;;;;;;;18.80;5.95;;;12.90;99.90;;;;;;5081688;28;20190;-81
2021/11/07 12:00:38;;;;;;;15.75;2.88;;;12.80;99.90;;;;;;5087280;28;20186;-82
2021/11/07 12:03:11;;;;;;;11.68;3.63;;;12.70;99.90;;;;;;5083681;28;20212;-80
2021/11/07 12:05:44;;;;;;;8.82;3.28;;;12.60;99.90;;;;;;5090583;28;20206;-84
2021/11/07 12:08:26;;;;;;;10.02;2.47;;;12.50;99.90;;;;;;5078598;28;20183;-82
2021/11/07 12:11:22;;;;;;;12.05;3.05;;;12.40;99.90;;;;;;5083962;28;20263;-83
2021/11/07 12:13:53;;;;;;;7.80;2.47;;;12.40;99.90;;;;;;5083991;28;20198;-83
2021/11/07 12:19:16;;;;;;;7.68;2.58;;;12.50;99.90;;;;;;5164052;27;20535;-74
2021/11/07 12:22:08;;;;;;;11.10;2.75;;;12.30;99.90;;;;;;5150430;27;20217;-74
2021/11/07 12:24:37;;;;;;;15.25;3.10;;;12.40;99.90;;;;;;5148495;27;20209;-75
2021/11/07 12:27:26;;;;;;;9.60;3.35;;;12.50;99.90;;;;;;5146401;27;20217;-74
2021/11/07 12:29:55;;;;;;;14.15;3.75;;;12.60;99.90;;;;;;5144884;27;20204;-74
2021/11/07 12:32:25;;;;;;;11.23;2.83;;;12.50;99.90;;;;;;5147455;27;20550;-74
2021/11/07 12:35:06;;;;;;;14.15;3.33;;;12.50;99.90;;;;;;5145883;27;20215;-76
2021/11/07 12:40:53;;;;;;;10.00;2.58;;;12.40;99.90;;;;;;5151012;27;20696;-74
2021/11/07 12:43:22;;;;;;;17.17;3.25;;;12.40;99.90;;;;;;5148838;27;20199;-75
2021/11/07 12:45:53;;;;;;;11.50;3.42;;;12.40;99.90;;;;;;5145021;27;20634;-75
2021/11/07 12:48:41;;;;;;;7.82;2.92;;;12.30;99.90;;;;;;5148319;27;20269;-75
2021/11/07 12:51:12;;;;;;;12.57;3.13;;;12.20;99.90;;;;;;5144187;27;20216;-75
2021/11/07 12:54:13;;;;;;;8.80;2.47;;;12.10;99.90;;;;;;5149497;27;20276;-75
2021/11/07 12:56:52;;;;;;;11.20;2.33;;;12.10;99.90;;;;;;5085643;28;20212;-75
2021/11/07 12:59:23;;;;;;;7.53;2.65;;;12.20;99.90;;;;;;5143396;27;20258;-75
2021/11/07 13:02:01;;;;;;;11.43;2.00;;;12.10;99.90;;;;;;5149880;27;20199;-75
2021/11/07 13:04:31;;;;;;;14.32;3.05;;;12.10;99.90;;;;;;5131287;27;20199;-75
2021/11/07 13:07:01;;;;;;;7.78;3.05;;;12.00;99.90;;;;;;5148164;27;20204;-75
2021/11/07 13:09:37;;;;;;;8.00;2.92;;;11.90;99.90;;;;;;5147777;27;20204;-74
2021/11/07 13:12:12;;;;;;;13.90;3.58;;;11.80;99.90;;;;;;5149581;27;20205;-74
2021/11/07 13:15:09;;;;;;;14.50;3.80;;;11.80;99.90;;;;;;5127593;27;20283;-75
2021/11/07 13:18:13;;;;;;;21.23;3.00;;;11.90;99.90;;;;;;5145194;27;20230;-75
2021/11/07 13:20:55;;;;;;;9.98;2.30;;;11.80;99.90;;;;;;5145916;27;20195;-74
2021/11/07 13:26:13;;;;;;;15.75;3.15;;;11.90;99.90;;;;;;5131332;27;20679;-74
2021/11/07 13:28:42;;;;;;;8.60;2.33;;;12.00;99.90;;;;;;5141831;27;20226;-75
2021/11/07 13:31:17;;;;;;;12.32;4.03;;;12.10;99.90;;;;;;5135846;27;20220;-75
2021/11/07 13:33:45;;;;;;;7.97;2.45;;;12.20;99.90;;;;;;5134851;27;20194;-75
2021/11/07 13:36:16;;;;;;;7.18;2.50;;;12.20;99.90;;;;;;5127524;27;20217;-75
2021/11/07 13:38:46;;;;;;;17.73;3.78;;;12.20;99.90;;;;;;5134314;27;20227;-75
2021/11/07 13:41:17;;;;;;;9.95;3.08;;;12.20;99.90;;;;;;5135997;27;20206;-74
2021/11/07 13:43:47;;;;;;;12.52;3.92;;;12.30;99.90;;;;;;5128831;27;20201;-74
2021/11/07 13:46:16;;;;;;;9.88;3.40;;;12.40;99.90;;;;;;5132713;27;20201;-75
2021/11/07 13:48:43;;;;;;;12.85;5.30;;;12.50;99.90;;;;;;5124878;27;20235;-75
2021/11/07 13:51:10;;;;;;;12.45;3.08;;;12.40;99.90;;;;;;5135155;27;20205;-74
2021/11/07 13:53:39;;;;;;;14.73;3.25;;;12.30;99.90;;;;;;5131066;27;20204;-75
2021/11/07 13:56:10;;;;;;;10.65;2.83;;;12.20;99.90;;;;;;5134606;27;20669;-75
2021/11/07 13:58:40;;;;;;;11.00;3.15;;;12.20;99.90;;;;;;5135208;27;20241;-74
2021/11/07 14:01:11;;;;;;;20.30;3.95;;;12.20;99.90;;;;;;5135298;27;20231;-75
2021/11/07 14:03:38;;;;;;;21.13;4.35;;;12.20;99.90;;;;;;5135224;27;20655;-75
2021/11/07 14:06:11;;;;;;;9.90;2.88;;;12.10;99.90;;;;;;5135056;27;20286;-75